Nearby METAR Reports

(scroll for additional cities)

 

KPSP - Palm Springs, California, USA
Distance from station: WNW 7mi, 11km
Updated: Thu, 04-Mar-2021 6:53pm PST
Clear
Clear
 Wind from calm
Wind: Calm
Temperature: 66°F , 19°C
Dew Point: 36°F , 2°C
Humidity: 32%
Barometer: 30.22 inHg , 1023.4 hPa
Clouds: Clear
Visibility: 10 miles , 16 km
2021/03/05 02:53 KPSP 050253Z 00000KT 10SM CLR 19/02 A3022 RMK AO2 SLP232 T01890017 51007
KTRM - Thermal/Palm Spg, California, USA
Distance from station: SE 16mi, 26km
Updated: Thu, 04-Mar-2021 6:52pm PST
Clear
Clear
 Wind from WSW
Wind: WSW 6 mph , 9 km/h
Temperature: 57°F , 14°C
Dew Point: 32°F , 0°C
Humidity: 39%
Barometer: 30.19 inHg , 1022.4 hPa
Clouds: Clear
Visibility: 10 miles , 16 km
2021/03/05 02:52 KTRM 050252Z AUTO 25005KT 10SM CLR 14/00 A3019 RMK AO2 SLP222 T01390000 52005
 
KNXP - Twentynine Palms, California, USA
Distance from station: NNE 37mi, 60km
Updated: Thu, 04-Mar-2021 6:56pm PST
Clear
Clear
 Wind from S
Wind: S 6 mph , 9 km/h
Temperature: 57°F , 14°C
Dew Point: 18°F , -8°C
Humidity: 21%
Barometer: 30.29 inHg , 1025.7 hPa
Clouds: Clear
Visibility: 10 miles , 16 km
2021/03/05 02:56 KNXP 050256Z AUTO 19005KT 10SM CLR 14/M08 A3029 RMK AO2 SLP243 T01441083 53007
KL35 - Big Bear City, California, USA
Distance from station: NW 43mi, 69km
Updated: Thu, 04-Mar-2021 6:55pm PST
Clear
Clear
 Wind from calm
Wind: Calm
Temperature: 32°F , 0°C
Dew Point: 14°F , -10°C
Humidity: 47%
Barometer: 30.33 inHg , 1027.1 hPa
Clouds: Clear
Visibility: 10 miles , 16 km
2021/03/05 02:55 KL35 050255Z AUTO 00000KT 10SM CLR 00/M10 A3033 RMK AO2
 
KF70 - Murrieta/Temecula, California, USA
Distance from station: WSW 45mi, 73km
Updated: Thu, 04-Mar-2021 6:55pm PST
Clear
Clear
 Wind from calm
Wind: Calm
Temperature: 57°F , 14°C
Dew Point: 48°F , 9°C
Humidity: 72%
Barometer: 30.22 inHg , 1023.4 hPa
Clouds: Clear
Visibility: 10 miles , 16 km
2021/03/05 02:55 KF70 050255Z AUTO 00000KT 10SM CLR 14/09 A3022 RMK AO1
KRIV - Riverside/March, California, USA
Distance from station: W 51mi, 82km
Updated: Thu, 04-Mar-2021 6:58pm PST
Clear
Clear
 Wind from WNW
Wind: WNW 6 mph , 9 km/h
Temperature: 57°F , 14°C
Dew Point: 43°F , 6°C
Humidity: 59%
Barometer: 30.22 inHg , 1023.4 hPa
Clouds: Clear
Visibility: 10 miles , 16 km
2021/03/05 02:58 KRIV 050258Z AUTO 29005KT 10SM CLR 14/06 A3022 RMK AO2 SLP233 T01400056 50004
 
KSBD - San Bernardino, California, USA
Distance from station: WNW 54mi, 86km
Updated: Thu, 04-Mar-2021 6:51pm PST
Clear
Clear
 Wind from WSW
Wind: WSW 5 mph , 7 km/h
Temperature: 63°F , 17°C
Dew Point: 36°F , 2°C
Humidity: 37%
Barometer: 30.22 inHg , 1023.4 hPa
Clouds: Clear
Visibility: 7 miles , 11 km
2021/03/05 02:51 KSBD 050251Z 25004KT 7SM CLR 17/02 A3022
KRNM - Ramona, California, USA
Distance from station: SSW 60mi, 96km
Updated: Thu, 04-Mar-2021 6:53pm PST
Clear
Clear
 Wind from calm
Wind: Calm
Temperature: 50°F , 10°C
Dew Point: 45°F , 7°C
Humidity: 82%
Barometer: 30.21 inHg , 1023 hPa
Clouds: Clear
Visibility: 10 miles , 16 km
2021/03/05 02:53 KRNM 050253Z 00000KT 10SM CLR 10/07 A3021 RMK AO2 SLP230 T01000072 55000
 
KRAL - Riverside, California, USA
Distance from station: W 62mi, 100km
Updated: Thu, 04-Mar-2021 6:53pm PST
Clear
Clear
 Wind from W
Wind: W 6 mph , 9 km/h
Temperature: 61°F , 16°C
Dew Point: 45°F , 7°C
Humidity: 55%
Barometer: 30.22 inHg , 1023.4 hPa
Clouds: Clear
Visibility: 10 miles , 16 km
2021/03/05 02:53 KRAL 050253Z 26005KT 10SM CLR 16/07 A3022 RMK AO2 SLP225 T01560067 53005 $
KOKB - Oceanside, California, USA
Distance from station: SW 68mi, 109km
Updated: Thu, 04-Mar-2021 6:52pm PST
Clear
Clear
 Wind from W
Wind: W 3 mph , 6 km/h
Temperature: 54°F , 12°C
Dew Point: 48°F , 9°C
Humidity: 82%
Barometer: 30.21 inHg , 1023 hPa
Clouds: Clear
Visibility: 10 miles , 16 km
2021/03/05 02:52 KOKB 050252Z AUTO 26003KT 10SM CLR 12/09 A3021 RMK AO2 SLP229 T01220094 55000
 
KONT - Ontario, California, USA
Distance from station: WNW 71mi, 114km
Updated: Thu, 04-Mar-2021 6:53pm PST
Clear
Clear
 Wind from SW
Wind: SW 7 mph , 11 km/h
Temperature: 61°F , 16°C
Dew Point: 45°F , 7°C
Humidity: 55%
Barometer: 30.22 inHg , 1023.4 hPa
Clouds: Clear
Visibility: 10 miles , 16 km
2021/03/05 02:53 KONT 050253Z 23006KT 10SM CLR 16/07 A3022 RMK AO2 SLP233 T01610067 53006
KNJK - El Centro Naf, California, USA
Distance from station: SSE 78mi, 126km
Updated: Thu, 04-Mar-2021 6:56pm PST
Few Clouds
Few Clouds
 Wind from N
Wind: N 3 mph , 6 km/h
Temperature: 64°F , 18°C
Dew Point: 32°F , 0°C
Humidity: 30%
Barometer: 30.20 inHg , 1022.7 hPa
Clouds: Few Clouds
Visibility: 10 miles , 16 km
Cloud details: Few Clouds 25000 ft
2021/03/05 02:56 KNJK 050256Z 35003KT 10SM FEW250 18/00 A3020 RMK AO2 SLP240 T01780000 58000 $
 
KSEE - San Diego/Santee, California, USA
Distance from station: SSW 74mi, 120km
Updated: Thu, 04-Mar-2021 7:15pm PST
Clear
Clear
 Wind from WNW
Wind: WNW 7 mph , 11 km/h
Temperature: 55°F , 13°C
Dew Point: 48°F , 9°C
Humidity: 77%
Barometer: 30.21 inHg , 1023 hPa
Clouds: Clear
Visibility: 10 miles , 16 km
2021/03/05 03:15 KSEE 050315Z AUTO 29006KT 10SM CLR 13/09 A3021 RMK AO2
KCNO - Chino, California, USA
Distance from station: W 72mi, 116km
Updated: Thu, 04-Mar-2021 6:53pm PST
Clear
Clear
 Wind from WSW
Wind: WSW 6 mph , 9 km/h
Temperature: 55°F , 13°C
Dew Point: 45°F , 7°C
Humidity: 67%
Barometer: 30.23 inHg , 1023.7 hPa
Clouds: Clear
Visibility: 10 miles , 16 km
2021/03/05 02:53 KCNO 050253Z 24005KT 10SM CLR 13/07 A3023 RMK AO2 SLP237 LAST T01330072 53005

Metar display script from Saratoga-Weather.org